Tampa, FL

9:56 AM EDT on August 30, 2016 (GMT -0400)
APRSWXNET | | Change Station

Elev 9 ft 27.88 °N, 82.49 °W | Updated 35 minutes ago

Mostly Cloudy
Mostly Cloudy
80 °F
Feels Like 86 °F
N
1
Wind Variable Wind from East
Gusts 4.0 mph

Today
High -- | Low -- °F
--% Chance of Precip.
Yesterday
High -- | Low -- °F
Precip. -- in
Pressure 29.92 in
Visibility 10.0 miles
Clouds Mostly Cloudy 1200 ft
Heat Index 86 °F
Dew Point 77 °F
Humidity 90%
Rainfall in
Snow Depth Not available.
7:08 AM 7:52 PM
Waning Crescent, 3% visible
SPECI KMCF 301348Z AUTO 13009KT 10SM BKN012 28/26 A2992 RMK AO2 BKN V SCT
Pressure 29.92 in
Visibility 10.0 miles
Clouds Mostly Cloudy 1200 ft
Heat Index 86 °F
Dew Point 77 °F
Humidity 90%
Rainfall in
Snow Depth Not available.
7:08 AM 7:52 PM
Waning Crescent, 3% visible
SPECI KMCF 301348Z AUTO 13009KT 10SM BKN012 28/26 A2992 RMK AO2 BKN V SCT

10-Day Weather Forecast

Almanac

Astronomy

Aug. 30, 2016 Rise Set
Actual Time
Civil Twilight
Nautical Twilight
Astronomical Twilight
Moon
Length of Visible Light
Length of Day
Tomorrow will be .
, % of the Moon is Illuminated

Today's Extremes

State Highs State Lows

Community

WunderPhotos

Upload Photos

1,935,833 photos uploaded!

WunderBlog® & News

Nearby

Air Quality

  Air Quality AQ Index Pollutant
Not available.

Snow Depth

Station Depth Elevation

Earthquake Activity

City Distance Mag. Time & Date
Minimum magnitude displayed is 2.5.

Coastal Water Temperatures

Place Temperature

Stations

Nearby Weather Stations

Station Location Temp. Windchill Dew Point Humidity Wind Precip. Elev Updated Type
                   

Watches & Warnings

There are currently no watches in effect.